Time;durP1;ratioP1;P1;durP2;ratioP2;P2;SDS_P1;SDS_P2;PMS_P1;PMS_P2;Temp;Humidity;BMP_temperature;BMP_pressure;BME280_temperature;BME280_humidity;BME280_pressure;Samples;Min_cycle;Max_cycle;Signal;HPM_P1;HPM_P2
2021/05/23 00:00:12;;;;;;;1.2;1;;;10.9;99.9;;;;;;;;;
2021/05/23 00:01:01;;;;;;;1.2;1;;;10.9;99.9;;;;;;;;;
2021/05/23 00:02:02;;;;;;;1.33;1.13;;;10.8;99.9;;;;;;;;;
2021/05/23 00:02:25;;;;;;;4.75;1.1;;;10.9;99.9;;;;;;;;;
2021/05/23 00:03:02;;;;;;;4.75;1.1;;;10.9;99.9;;;;;;;;;
2021/05/23 00:03:16;;;;;;;1.55;1;;;10.9;99.9;;;;;;;;;
2021/05/23 00:04:01;;;;;;;1.55;1;;;10.9;99.9;;;;;;;;;
2021/05/23 00:04:13;;;;;;;2.78;1.3;;;10.8;99.9;;;;;;;;;
2021/05/23 00:04:38;;;;;;;2.78;1.3;;;10.8;99.9;;;;;;;;;
2021/05/23 00:05:01;;;;;;;2.78;1.3;;;10.8;99.9;;;;;;;;;
2021/05/23 00:05:14;;;;;;;2.58;1.15;;;10.9;99.9;;;;;;;;;
2021/05/23 00:05:29;;;;;;;2.58;1.15;;;10.9;99.9;;;;;;;;;
2021/05/23 00:06:02;;;;;;;2.58;1.15;;;10.9;99.9;;;;;;;;;
2021/05/23 00:06:16;;;;;;;2.42;1.33;;;10.8;99.9;;;;;;;;;
2021/05/23 00:06:26;;;;;;;2.42;1.33;;;10.8;99.9;;;;;;;;;
2021/05/23 00:06:51;;;;;;;2.42;1.33;;;10.8;99.9;;;;;;;;;
2021/05/23 00:07:01;;;;;;;2.42;1.33;;;10.8;99.9;;;;;;;;;
2021/05/23 00:07:17;;;;;;;1.77;1.2;;;10.8;99.9;;;;;;;;;
2021/05/23 00:07:27;;;;;;;1.77;1.2;;;10.8;99.9;;;;;;;;;
2021/05/23 00:07:44;;;;;;;1.77;1.2;;;10.8;99.9;;;;;;;;;
2021/05/23 00:08:03;;;;;;;1.77;1.2;;;10.8;99.9;;;;;;;;;
2021/05/23 00:08:13;;;;;;;1.92;1.1;;;10.8;99.9;;;;;;;;;
2021/05/23 00:08:29;;;;;;;1.92;1.1;;;10.8;99.9;;;;;;;;;
2021/05/23 00:08:39;;;;;;;1.92;1.1;;;10.8;99.9;;;;;;;;;
2021/05/23 00:09:01;;;;;;;1.92;1.1;;;10.8;99.9;;;;;;;;;
2021/05/23 00:09:04;;;;;;;1.92;1.1;;;10.8;99.9;;;;;;;;;
2021/05/23 00:09:15;;;;;;;1.65;1.15;;;10.8;99.9;;;;;;;;;
2021/05/23 00:09:30;;;;;;;1.65;1.15;;;10.8;99.9;;;;;;;;;
2021/05/23 00:09:40;;;;;;;1.65;1.15;;;10.8;99.9;;;;;;;;;
2021/05/23 00:10:01;;;;;;;1.65;1.15;;;10.8;99.9;;;;;;;;;
2021/05/23 00:10:01;;;;;;;1.65;1.15;;;10.8;99.9;;;;;;;;;
2021/05/23 00:10:17;;;;;;;1.17;1;;;10.8;99.9;;;;;;;;;
2021/05/23 00:10:26;;;;;;;1.17;1;;;10.8;99.9;;;;;;;;;
2021/05/23 00:10:42;;;;;;;1.17;1;;;10.8;99.9;;;;;;;;;
2021/05/23 00:10:52;;;;;;;1.17;1;;;10.8;99.9;;;;;;;;;
2021/05/23 00:11:02;;;;;;;1.17;1;;;10.8;99.9;;;;;;;;;
2021/05/23 00:11:12;;;;;;;1.17;1;;;10.8;99.9;;;;;;;;;
2021/05/23 00:11:28;;;;;;;2.75;0.9;;;10.9;99.9;;;;;;;;;
2021/05/23 00:11:43;;;;;;;2.75;0.9;;;10.9;99.9;;;;;;;;;
2021/05/23 00:11:53;;;;;;;2.75;0.9;;;10.9;99.9;;;;;;;;;
2021/05/23 00:12:02;;;;;;;2.75;0.9;;;10.9;99.9;;;;;;;;;
2021/05/23 00:12:16;;;;;;;3.08;1;;;10.8;99.9;;;;;;;;;
2021/05/23 00:12:16;;;;;;;3.08;1;;;10.8;99.9;;;;;;;;;
2021/05/23 00:12:29;;;;;;;3.08;1;;;10.8;99.9;;;;;;;;;
2021/05/23 00:12:39;;;;;;;3.08;1;;;10.8;99.9;;;;;;;;;
2021/05/23 00:12:55;;;;;;;3.08;1;;;10.8;99.9;;;;;;;;;
2021/05/23 00:13:02;;;;;;;3.08;1;;;10.8;99.9;;;;;;;;;
2021/05/23 00:13:05;;;;;;;3.08;1;;;10.8;99.9;;;;;;;;;
2021/05/23 00:13:15;;;;;;;2.78;1.23;;;10.8;99.9;;;;;;;;;
2021/05/23 00:13:26;;;;;;;2.78;1.23;;;10.8;99.9;;;;;;;;;
2021/05/23 00:13:41;;;;;;;2.78;1.23;;;10.8;99.9;;;;;;;;;
2021/05/23 00:13:56;;;;;;;2.78;1.23;;;10.8;99.9;;;;;;;;;
2021/05/23 00:14:02;;;;;;;2.78;1.23;;;10.8;99.9;;;;;;;;;
2021/05/23 00:14:06;;;;;;;2.78;1.23;;;10.8;99.9;;;;;;;;;
2021/05/23 00:14:17;;;;;;;1.1;0.9;;;10.9;99.9;;;;;;;;;
2021/05/23 00:14:27;;;;;;;1.1;0.9;;;10.9;99.9;;;;;;;;;
2021/05/23 00:14:42;;;;;;;1.1;0.9;;;10.9;99.9;;;;;;;;;
2021/05/23 00:14:53;;;;;;;1.1;0.9;;;10.9;99.9;;;;;;;;;
2021/05/23 00:15:02;;;;;;;1.1;0.9;;;10.9;99.9;;;;;;;;;
2021/05/23 00:15:08;;;;;;;1.1;0.9;;;10.9;99.9;;;;;;;;;
2021/05/23 00:15:13;;;;;;;1.1;0.9;;;10.9;99.9;;;;;;;;;
2021/05/23 00:15:28;;;;;;;1.83;0.93;;;10.8;99.9;;;;;;;;;
2021/05/23 00:15:39;;;;;;;1.83;0.93;;;10.8;99.9;;;;;;;;;
2021/05/23 00:15:54;;;;;;;1.83;0.93;;;10.8;99.9;;;;;;;;;
2021/05/23 00:16:04;;;;;;;1.83;0.93;;;10.8;99.9;;;;;;;;;
2021/05/23 00:16:09;;;;;;;1.83;0.93;;;10.8;99.9;;;;;;;;;
2021/05/23 00:16:15;;;;;;;1.83;0.93;;;10.8;99.9;;;;;;;;;
2021/05/23 00:16:30;;;;;;;2.17;0.9;;;10.9;99.9;;;;;;;;;
2021/05/23 00:16:40;;;;;;;2.17;0.9;;;10.9;99.9;;;;;;;;;
2021/05/23 00:16:55;;;;;;;2.17;0.9;;;10.9;99.9;;;;;;;;;
2021/05/23 00:17:02;;;;;;;2.17;0.9;;;10.9;99.9;;;;;;;;;
2021/05/23 00:17:06;;;;;;;2.17;0.9;;;10.9;99.9;;;;;;;;;
2021/05/23 00:17:16;;;;;;;1.52;1.1;;;10.9;99.9;;;;;;;;;
2021/05/23 00:17:26;;;;;;;1.52;1.1;;;10.9;99.9;;;;;;;;;
2021/05/23 00:17:42;;;;;;;1.52;1.1;;;10.9;99.9;;;;;;;;;
2021/05/23 00:17:52;;;;;;;1.52;1.1;;;10.9;99.9;;;;;;;;;
2021/05/23 00:18:02;;;;;;;1.52;1.1;;;10.9;99.9;;;;;;;;;
2021/05/23 00:18:07;;;;;;;1.52;1.1;;;10.9;99.9;;;;;;;;;
2021/05/23 00:18:17;;;;;;;1.25;1;;;10.9;99.9;;;;;;;;;
2021/05/23 00:18:28;;;;;;;1.25;1;;;10.9;99.9;;;;;;;;;
2021/05/23 00:18:43;;;;;;;1.25;1;;;10.9;99.9;;;;;;;;;
2021/05/23 00:18:54;;;;;;;1.25;1;;;10.9;99.9;;;;;;;;;
2021/05/23 00:19:02;;;;;;;1.25;1;;;10.9;99.9;;;;;;;;;
2021/05/23 00:19:09;;;;;;;1.25;1;;;10.9;99.9;;;;;;;;;
2021/05/23 00:19:14;;;;;;;1.25;1;;;10.9;99.9;;;;;;;;;
2021/05/23 00:19:29;;;;;;;3.72;1.13;;;11;99.9;;;;;;;;;
2021/05/23 00:19:39;;;;;;;3.72;1.13;;;11;99.9;;;;;;;;;
2021/05/23 00:19:55;;;;;;;3.72;1.13;;;11;99.9;;;;;;;;;
2021/05/23 00:20:01;;;;;;;3.72;1.13;;;11;99.9;;;;;;;;;
2021/05/23 00:20:05;;;;;;;3.72;1.13;;;11;99.9;;;;;;;;;
2021/05/23 00:20:15;;;;;;;3.72;1.13;;;11;99.9;;;;;;;;;
2021/05/23 00:20:30;;;;;;;1.92;1.15;;;11;99.9;;;;;;;;;
2021/05/23 00:20:41;;;;;;;1.92;1.15;;;11;99.9;;;;;;;;;
2021/05/23 00:20:56;;;;;;;1.92;1.15;;;11;99.9;;;;;;;;;
2021/05/23 00:21:02;;;;;;;1.92;1.15;;;11;99.9;;;;;;;;;
2021/05/23 00:21:06;;;;;;;1.92;1.15;;;11;99.9;;;;;;;;;
2021/05/23 00:21:17;;;;;;;2.15;1.08;;;11;99.9;;;;;;;;;
2021/05/23 00:21:27;;;;;;;2.15;1.08;;;11;99.9;;;;;;;;;
2021/05/23 00:21:42;;;;;;;2.15;1.08;;;11;99.9;;;;;;;;;
2021/05/23 00:21:52;;;;;;;2.15;1.08;;;11;99.9;;;;;;;;;
2021/05/23 00:22:01;;;;;;;2.15;1.08;;;11;99.9;;;;;;;;;
2021/05/23 00:22:08;;;;;;;2.15;1.08;;;11;99.9;;;;;;;;;
2021/05/23 00:22:13;;;;;;;2.15;1.08;;;11;99.9;;;;;;;;;
2021/05/23 00:22:28;;;;;;;2.22;1.17;;;11;99.9;;;;;;;;;
2021/05/23 00:22:44;;;;;;;2.22;1.17;;;11;99.9;;;;;;;;;
2021/05/23 00:22:54;;;;;;;2.22;1.17;;;11;99.9;;;;;;;;;
2021/05/23 00:23:02;;;;;;;2.22;1.17;;;11;99.9;;;;;;;;;
2021/05/23 00:23:10;;;;;;;2.22;1.17;;;11;99.9;;;;;;;;;
2021/05/23 00:23:14;;;;;;;2.22;1.17;;;11;99.9;;;;;;;;;
2021/05/23 00:23:30;;;;;;;2.13;1.2;;;11;99.9;;;;;;;;;
2021/05/23 00:23:40;;;;;;;2.13;1.2;;;11;99.9;;;;;;;;;
2021/05/23 00:23:55;;;;;;;2.13;1.2;;;11;99.9;;;;;;;;;
2021/05/23 00:24:02;;;;;;;2.13;1.2;;;11;99.9;;;;;;;;;
2021/05/23 00:24:06;;;;;;;2.13;1.2;;;11;99.9;;;;;;;;;
2021/05/23 00:24:16;;;;;;;2.13;1.2;;;11;99.9;;;;;;;;;
2021/05/23 00:24:26;;;;;;;1.4;1.3;;;11;99.9;;;;;;;;;
2021/05/23 00:24:41;;;;;;;1.4;1.3;;;11;99.9;;;;;;;;;
2021/05/23 00:24:57;;;;;;;1.4;1.3;;;11;99.9;;;;;;;;;
2021/05/23 00:25:01;;;;;;;1.4;1.3;;;11;99.9;;;;;;;;;
2021/05/23 00:25:07;;;;;;;1.4;1.3;;;11;99.9;;;;;;;;;
2021/05/23 00:25:12;;;;;;;1.4;1.3;;;11;99.9;;;;;;;;;
2021/05/23 00:25:28;;;;;;;2.28;1.08;;;11;99.9;;;;;;;;;
2021/05/23 00:25:43;;;;;;;2.28;1.08;;;11;99.9;;;;;;;;;
2021/05/23 00:25:53;;;;;;;2.28;1.08;;;11;99.9;;;;;;;;;
2021/05/23 00:26:02;;;;;;;2.28;1.08;;;11;99.9;;;;;;;;;
2021/05/23 00:26:08;;;;;;;2.28;1.08;;;11;99.9;;;;;;;;;
2021/05/23 00:26:14;;;;;;;2.28;1.08;;;11;99.9;;;;;;;;;
2021/05/23 00:26:29;;;;;;;2.42;1.02;;;10.9;99.9;;;;;;;;;
2021/05/23 00:26:39;;;;;;;2.42;1.02;;;10.9;99.9;;;;;;;;;
2021/05/23 00:26:55;;;;;;;2.42;1.02;;;10.9;99.9;;;;;;;;;
2021/05/23 00:27:02;;;;;;;2.42;1.02;;;10.9;99.9;;;;;;;;;
2021/05/23 00:27:10;;;;;;;2.42;1.02;;;10.9;99.9;;;;;;;;;
2021/05/23 00:27:15;;;;;;;2.42;1.02;;;10.9;99.9;;;;;;;;;
2021/05/23 00:27:25;;;;;;;3.22;1.5;;;10.9;99.9;;;;;;;;;
2021/05/23 00:27:41;;;;;;;3.22;1.5;;;10.9;99.9;;;;;;;;;
2021/05/23 00:27:56;;;;;;;3.22;1.5;;;10.9;99.9;;;;;;;;;
2021/05/23 00:28:02;;;;;;;3.22;1.5;;;10.9;99.9;;;;;;;;;
2021/05/23 00:28:06;;;;;;;3.22;1.5;;;10.9;99.9;;;;;;;;;
2021/05/23 00:28:16;;;;;;;3.22;1.5;;;10.9;99.9;;;;;;;;;
2021/05/23 00:28:27;;;;;;;2.1;1.2;;;10.9;99.9;;;;;;;;;
2021/05/23 00:28:42;;;;;;;2.1;1.2;;;10.9;99.9;;;;;;;;;
2021/05/23 00:28:53;;;;;;;2.1;1.2;;;10.9;99.9;;;;;;;;;
2021/05/23 00:29:02;;;;;;;2.1;1.2;;;10.9;99.9;;;;;;;;;
2021/05/23 00:29:08;;;;;;;2.1;1.2;;;10.9;99.9;;;;;;;;;
2021/05/23 00:29:13;;;;;;;2.1;1.2;;;10.9;99.9;;;;;;;;;
2021/05/23 00:29:28;;;;;;;1.5;1.17;;;10.9;99.9;;;;;;;;;
2021/05/23 00:29:38;;;;;;;1.5;1.17;;;10.9;99.9;;;;;;;;;
2021/05/23 00:29:54;;;;;;;1.5;1.17;;;10.9;99.9;;;;;;;;;
2021/05/23 00:30:02;;;;;;;1.5;1.17;;;10.9;99.9;;;;;;;;;
2021/05/23 00:30:09;;;;;;;1.5;1.17;;;10.9;99.9;;;;;;;;;
2021/05/23 00:30:14;;;;;;;1.5;1.17;;;10.9;99.9;;;;;;;;;
2021/05/23 00:30:30;;;;;;;2.75;1.2;;;11;99.9;;;;;;;;;
2021/05/23 00:30:40;;;;;;;2.75;1.2;;;11;99.9;;;;;;;;;
2021/05/23 00:30:55;;;;;;;2.75;1.2;;;11;99.9;;;;;;;;;
2021/05/23 00:31:02;;;;;;;2.75;1.2;;;11;99.9;;;;;;;;;
2021/05/23 00:31:05;;;;;;;2.75;1.2;;;11;99.9;;;;;;;;;
2021/05/23 00:31:16;;;;;;;2.75;1.2;;;11;99.9;;;;;;;;;
2021/05/23 00:31:26;;;;;;;2.58;1.2;;;10.9;99.9;;;;;;;;;
2021/05/23 00:31:41;;;;;;;2.58;1.2;;;10.9;99.9;;;;;;;;;
2021/05/23 00:31:53;;;;;;;2.58;1.2;;;10.9;99.9;;;;;;;;;
2021/05/23 00:32:02;;;;;;;2.58;1.2;;;10.9;99.9;;;;;;;;;
2021/05/23 00:32:07;;;;;;;2.58;1.2;;;10.9;99.9;;;;;;;;;
2021/05/23 00:32:18;;;;;;;2.58;1.2;;;10.9;99.9;;;;;;;;;
2021/05/23 00:32:27;;;;;;;2.88;1.3;;;11;99.9;;;;;;;;;
2021/05/23 00:32:43;;;;;;;2.88;1.3;;;11;99.9;;;;;;;;;
2021/05/23 00:32:53;;;;;;;2.88;1.3;;;11;99.9;;;;;;;;;
2021/05/23 00:33:02;;;;;;;2.88;1.3;;;11;99.9;;;;;;;;;
2021/05/23 00:33:08;;;;;;;2.88;1.3;;;11;99.9;;;;;;;;;
2021/05/23 00:33:13;;;;;;;2.88;1.3;;;11;99.9;;;;;;;;;
2021/05/23 00:33:29;;;;;;;1.55;1.2;;;11;99.9;;;;;;;;;
2021/05/23 00:33:39;;;;;;;1.55;1.2;;;11;99.9;;;;;;;;;
2021/05/23 00:33:54;;;;;;;1.55;1.2;;;11;99.9;;;;;;;;;
2021/05/23 00:34:02;;;;;;;1.55;1.2;;;11;99.9;;;;;;;;;
2021/05/23 00:34:05;;;;;;;1.55;1.2;;;11;99.9;;;;;;;;;
2021/05/23 00:34:15;;;;;;;1.55;1.2;;;11;99.9;;;;;;;;;
2021/05/23 00:34:30;;;;;;;1.98;1.1;;;11;99.9;;;;;;;;;
2021/05/23 00:34:40;;;;;;;1.98;1.1;;;11;99.9;;;;;;;;;
2021/05/23 00:34:56;;;;;;;1.98;1.1;;;11;99.9;;;;;;;;;
2021/05/23 00:35:01;;;;;;;1.98;1.1;;;11;99.9;;;;;;;;;
2021/05/23 00:35:06;;;;;;;1.98;1.1;;;11;99.9;;;;;;;;;
2021/05/23 00:35:16;;;;;;;1.98;1.1;;;11;99.9;;;;;;;;;
2021/05/23 00:35:28;;;;;;;2.47;1.2;;;11;99.9;;;;;;;;;
2021/05/23 00:35:42;;;;;;;2.47;1.2;;;11;99.9;;;;;;;;;
2021/05/23 00:35:52;;;;;;;2.47;1.2;;;11;99.9;;;;;;;;;
2021/05/23 00:36:02;;;;;;;2.47;1.2;;;11;99.9;;;;;;;;;
2021/05/23 00:36:07;;;;;;;2.47;1.2;;;11;99.9;;;;;;;;;
2021/05/23 00:36:13;;;;;;;2.47;1.2;;;11;99.9;;;;;;;;;
2021/05/23 00:36:28;;;;;;;3.2;1;;;10.9;99.9;;;;;;;;;
2021/05/23 00:36:43;;;;;;;3.2;1;;;10.9;99.9;;;;;;;;;
2021/05/23 00:36:54;;;;;;;3.2;1;;;10.9;99.9;;;;;;;;;
2021/05/23 00:37:01;;;;;;;3.2;1;;;10.9;99.9;;;;;;;;;
2021/05/23 00:37:09;;;;;;;3.2;1;;;10.9;99.9;;;;;;;;;
2021/05/23 00:37:14;;;;;;;3.2;1;;;10.9;99.9;;;;;;;;;
2021/05/23 00:37:29;;;;;;;2.85;1.15;;;10.9;99.9;;;;;;;;;
2021/05/23 00:37:40;;;;;;;2.85;1.15;;;10.9;99.9;;;;;;;;;
2021/05/23 00:37:55;;;;;;;2.85;1.15;;;10.9;99.9;;;;;;;;;
2021/05/23 00:38:02;;;;;;;2.85;1.15;;;10.9;99.9;;;;;;;;;
2021/05/23 00:38:05;;;;;;;2.85;1.15;;;10.9;99.9;;;;;;;;;
2021/05/23 00:38:15;;;;;;;2.85;1.15;;;10.9;99.9;;;;;;;;;
2021/05/23 00:38:26;;;;;;;1.83;1.05;;;10.9;99.9;;;;;;;;;
2021/05/23 00:38:43;;;;;;;1.83;1.05;;;10.9;99.9;;;;;;;;;
2021/05/23 00:38:56;;;;;;;1.83;1.05;;;10.9;99.9;;;;;;;;;
2021/05/23 00:39:02;;;;;;;1.83;1.05;;;10.9;99.9;;;;;;;;;
2021/05/23 00:39:07;;;;;;;1.83;1.05;;;10.9;99.9;;;;;;;;;
2021/05/23 00:39:12;;;;;;;1.83;1.05;;;10.9;99.9;;;;;;;;;
2021/05/23 00:39:27;;;;;;;2.97;1.1;;;10.9;99.9;;;;;;;;;
2021/05/23 00:39:43;;;;;;;2.97;1.1;;;10.9;99.9;;;;;;;;;
2021/05/23 00:39:53;;;;;;;2.97;1.1;;;10.9;99.9;;;;;;;;;
2021/05/23 00:40:02;;;;;;;2.97;1.1;;;10.9;99.9;;;;;;;;;
2021/05/23 00:40:08;;;;;;;2.97;1.1;;;10.9;99.9;;;;;;;;;
2021/05/23 00:40:13;;;;;;;2.97;1.1;;;10.9;99.9;;;;;;;;;
2021/05/23 00:40:29;;;;;;;1.55;1.25;;;10.9;99.9;;;;;;;;;
2021/05/23 00:40:39;;;;;;;1.55;1.25;;;10.9;99.9;;;;;;;;;
2021/05/23 00:40:54;;;;;;;1.55;1.25;;;10.9;99.9;;;;;;;;;
2021/05/23 00:41:02;;;;;;;1.55;1.25;;;10.9;99.9;;;;;;;;;
2021/05/23 00:41:10;;;;;;;1.55;1.25;;;10.9;99.9;;;;;;;;;
2021/05/23 00:41:15;;;;;;;1.55;1.25;;;10.9;99.9;;;;;;;;;
2021/05/23 00:41:25;;;;;;;2.17;1.2;;;10.9;99.9;;;;;;;;;
2021/05/23 00:41:40;;;;;;;2.17;1.2;;;10.9;99.9;;;;;;;;;
2021/05/23 00:41:56;;;;;;;2.17;1.2;;;10.9;99.9;;;;;;;;;
2021/05/23 00:42:01;;;;;;;2.17;1.2;;;10.9;99.9;;;;;;;;;
2021/05/23 00:42:09;;;;;;;2.17;1.2;;;10.9;99.9;;;;;;;;;
2021/05/23 00:42:16;;;;;;;2.17;1.2;;;10.9;99.9;;;;;;;;;
2021/05/23 00:42:26;;;;;;;2.5;1.35;;;11;99.9;;;;;;;;;
2021/05/23 00:42:42;;;;;;;2.5;1.35;;;11;99.9;;;;;;;;;
2021/05/23 00:42:52;;;;;;;2.5;1.35;;;11;99.9;;;;;;;;;
2021/05/23 00:43:02;;;;;;;2.5;1.35;;;11;99.9;;;;;;;;;
2021/05/23 00:43:07;;;;;;;2.5;1.35;;;11;99.9;;;;;;;;;
2021/05/23 00:43:12;;;;;;;2.5;1.35;;;11;99.9;;;;;;;;;
2021/05/23 00:43:28;;;;;;;1.75;1.3;;;11;99.9;;;;;;;;;
2021/05/23 00:43:38;;;;;;;1.75;1.3;;;11;99.9;;;;;;;;;
2021/05/23 00:43:53;;;;;;;1.75;1.3;;;11;99.9;;;;;;;;;
2021/05/23 00:44:01;;;;;;;1.75;1.3;;;11;99.9;;;;;;;;;
2021/05/23 00:44:09;;;;;;;1.75;1.3;;;11;99.9;;;;;;;;;
2021/05/23 00:44:14;;;;;;;1.75;1.3;;;11;99.9;;;;;;;;;
2021/05/23 00:44:29;;;;;;;2.15;1.3;;;10.9;99.9;;;;;;;;;
2021/05/23 00:44:39;;;;;;;2.15;1.3;;;10.9;99.9;;;;;;;;;
2021/05/23 00:44:55;;;;;;;2.15;1.3;;;10.9;99.9;;;;;;;;;
2021/05/23 00:45:02;;;;;;;2.15;1.3;;;10.9;99.9;;;;;;;;;
2021/05/23 00:45:05;;;;;;;2.15;1.3;;;10.9;99.9;;;;;;;;;
2021/05/23 00:45:15;;;;;;;2.15;1.3;;;10.9;99.9;;;;;;;;;
2021/05/23 00:45:26;;;;;;;2;1.17;;;10.9;99.9;;;;;;;;;
2021/05/23 00:45:41;;;;;;;2;1.17;;;10.9;99.9;;;;;;;;;
2021/05/23 00:45:51;;;;;;;2;1.17;;;10.9;99.9;;;;;;;;;
2021/05/23 00:46:02;;;;;;;2;1.17;;;10.9;99.9;;;;;;;;;
2021/05/23 00:46:07;;;;;;;2;1.17;;;10.9;99.9;;;;;;;;;
2021/05/23 00:46:17;;;;;;;2;1.17;;;10.9;99.9;;;;;;;;;
2021/05/23 00:46:27;;;;;;;2.92;1.27;;;10.9;99.9;;;;;;;;;
2021/05/23 00:46:42;;;;;;;2.92;1.27;;;10.9;99.9;;;;;;;;;
2021/05/23 00:46:53;;;;;;;2.92;1.27;;;10.9;99.9;;;;;;;;;
2021/05/23 00:47:01;;;;;;;2.92;1.27;;;10.9;99.9;;;;;;;;;
2021/05/23 00:47:08;;;;;;;2.92;1.27;;;10.9;99.9;;;;;;;;;
2021/05/23 00:47:13;;;;;;;2.92;1.27;;;10.9;99.9;;;;;;;;;
2021/05/23 00:47:28;;;;;;;2.2;1.3;;;10.9;99.9;;;;;;;;;
2021/05/23 00:47:39;;;;;;;2.2;1.3;;;10.9;99.9;;;;;;;;;
2021/05/23 00:47:54;;;;;;;2.2;1.3;;;10.9;99.9;;;;;;;;;
2021/05/23 00:48:02;;;;;;;2.2;1.3;;;10.9;99.9;;;;;;;;;
2021/05/23 00:48:04;;;;;;;2.2;1.3;;;10.9;99.9;;;;;;;;;
2021/05/23 00:48:14;;;;;;;2.2;1.3;;;10.9;99.9;;;;;;;;;
2021/05/23 00:48:30;;;;;;;2.28;1.5;;;10.9;99.9;;;;;;;;;
2021/05/23 00:48:40;;;;;;;2.28;1.5;;;10.9;99.9;;;;;;;;;
2021/05/23 00:48:55;;;;;;;2.28;1.5;;;10.9;99.9;;;;;;;;;
2021/05/23 00:49:02;;;;;;;2.28;1.5;;;10.9;99.9;;;;;;;;;
2021/05/23 00:49:06;;;;;;;2.28;1.5;;;10.9;99.9;;;;;;;;;
2021/05/23 00:49:16;;;;;;;2.28;1.5;;;10.9;99.9;;;;;;;;;
2021/05/23 00:49:26;;;;;;;1.65;1.33;;;10.9;99.9;;;;;;;;;
2021/05/23 00:49:42;;;;;;;1.65;1.33;;;10.9;99.9;;;;;;;;;
2021/05/23 00:49:52;;;;;;;1.65;1.33;;;10.9;99.9;;;;;;;;;
2021/05/23 00:50:02;;;;;;;1.65;1.33;;;10.9;99.9;;;;;;;;;
2021/05/23 00:50:07;;;;;;;1.65;1.33;;;10.9;99.9;;;;;;;;;
2021/05/23 00:50:12;;;;;;;1.65;1.33;;;10.9;99.9;;;;;;;;;
2021/05/23 00:50:28;;;;;;;1.77;1.33;;;10.9;99.9;;;;;;;;;
2021/05/23 00:50:43;;;;;;;1.77;1.33;;;10.9;99.9;;;;;;;;;
2021/05/23 00:50:53;;;;;;;1.77;1.33;;;10.9;99.9;;;;;;;;;
2021/05/23 00:51:02;;;;;;;1.77;1.33;;;10.9;99.9;;;;;;;;;
2021/05/23 00:51:09;;;;;;;1.77;1.33;;;10.9;99.9;;;;;;;;;
2021/05/23 00:51:14;;;;;;;1.77;1.33;;;10.9;99.9;;;;;;;;;
2021/05/23 00:51:29;;;;;;;3.9;1.5;;;10.8;99.9;;;;;;;;;
2021/05/23 00:51:39;;;;;;;3.9;1.5;;;10.8;99.9;;;;;;;;;
2021/05/23 00:51:55;;;;;;;3.9;1.5;;;10.8;99.9;;;;;;;;;
2021/05/23 00:52:01;;;;;;;3.9;1.5;;;10.8;99.9;;;;;;;;;
2021/05/23 00:52:05;;;;;;;3.9;1.5;;;10.8;99.9;;;;;;;;;
2021/05/23 00:52:15;;;;;;;3.9;1.5;;;10.8;99.9;;;;;;;;;
2021/05/23 00:52:31;;;;;;;3.3;1.45;;;10.8;99.9;;;;;;;;;
2021/05/23 00:52:41;;;;;;;3.3;1.45;;;10.8;99.9;;;;;;;;;
2021/05/23 00:52:56;;;;;;;3.3;1.45;;;10.8;99.9;;;;;;;;;
2021/05/23 00:53:02;;;;;;;3.3;1.45;;;10.8;99.9;;;;;;;;;
2021/05/23 00:53:06;;;;;;;3.3;1.45;;;10.8;99.9;;;;;;;;;
2021/05/23 00:53:17;;;;;;;3.3;1.45;;;10.8;99.9;;;;;;;;;
2021/05/23 00:53:27;;;;;;;1.85;1.3;;;10.8;99.9;;;;;;;;;
2021/05/23 00:53:42;;;;;;;1.85;1.3;;;10.8;99.9;;;;;;;;;
2021/05/23 00:53:52;;;;;;;1.85;1.3;;;10.8;99.9;;;;;;;;;
2021/05/23 00:54:01;;;;;;;1.85;1.3;;;10.8;99.9;;;;;;;;;
2021/05/23 00:54:08;;;;;;;1.85;1.3;;;10.8;99.9;;;;;;;;;
2021/05/23 00:54:13;;;;;;;1.85;1.3;;;10.8;99.9;;;;;;;;;
2021/05/23 00:54:28;;;;;;;1.13;0.93;;;10.8;99.9;;;;;;;;;
2021/05/23 00:54:44;;;;;;;1.13;0.93;;;10.8;99.9;;;;;;;;;
2021/05/23 00:54:54;;;;;;;1.13;0.93;;;10.8;99.9;;;;;;;;;
2021/05/23 00:55:02;;;;;;;1.13;0.93;;;10.8;99.9;;;;;;;;;
2021/05/23 00:55:09;;;;;;;1.13;0.93;;;10.8;99.9;;;;;;;;;
2021/05/23 00:55:14;;;;;;;1.13;0.93;;;10.8;99.9;;;;;;;;;
2021/05/23 00:55:30;;;;;;;2.28;1.42;;;10.8;99.9;;;;;;;;;
2021/05/23 00:55:40;;;;;;;2.28;1.42;;;10.8;99.9;;;;;;;;;
2021/05/23 00:55:55;;;;;;;2.28;1.42;;;10.8;99.9;;;;;;;;;
2021/05/23 00:56:02;;;;;;;2.28;1.42;;;10.8;99.9;;;;;;;;;
2021/05/23 00:56:05;;;;;;;2.28;1.42;;;10.8;99.9;;;;;;;;;
2021/05/23 00:56:18;;;;;;;2.28;1.42;;;10.8;99.9;;;;;;;;;
2021/05/23 00:56:26;;;;;;;2.28;1.42;;;10.8;99.9;;;;;;;;;
2021/05/23 00:56:43;;;;;;;1.6;1.5;;;10.7;99.9;;;;;;;;;
2021/05/23 00:56:57;;;;;;;1.6;1.5;;;10.7;99.9;;;;;;;;;
2021/05/23 00:57:01;;;;;;;1.6;1.5;;;10.7;99.9;;;;;;;;;
2021/05/23 00:57:07;;;;;;;1.6;1.5;;;10.7;99.9;;;;;;;;;
2021/05/23 00:57:13;;;;;;;1.6;1.5;;;10.7;99.9;;;;;;;;;
2021/05/23 00:57:28;;;;;;;2.45;1.65;;;10.8;99.9;;;;;;;;;
2021/05/23 00:57:43;;;;;;;2.45;1.65;;;10.8;99.9;;;;;;;;;
2021/05/23 00:57:53;;;;;;;2.45;1.65;;;10.8;99.9;;;;;;;;;
2021/05/23 00:58:02;;;;;;;2.45;1.65;;;10.8;99.9;;;;;;;;;
2021/05/23 00:58:08;;;;;;;2.45;1.65;;;10.8;99.9;;;;;;;;;
2021/05/23 00:58:14;;;;;;;2.45;1.65;;;10.8;99.9;;;;;;;;;
2021/05/23 00:58:29;;;;;;;1.92;1.52;;;10.8;99.9;;;;;;;;;
2021/05/23 00:58:39;;;;;;;1.92;1.52;;;10.8;99.9;;;;;;;;;
2021/05/23 00:58:54;;;;;;;1.92;1.52;;;10.8;99.9;;;;;;;;;
2021/05/23 00:59:01;;;;;;;1.92;1.52;;;10.8;99.9;;;;;;;;;
2021/05/23 00:59:10;;;;;;;1.92;1.52;;;10.8;99.9;;;;;;;;;
2021/05/23 00:59:17;;;;;;;1.92;1.52;;;10.8;99.9;;;;;;;;;
2021/05/23 00:59:25;;;;;;;1.92;1.52;;;10.8;99.9;;;;;;;;;
2021/05/23 00:59:41;;;;;;;2.08;1.35;;;10.8;99.9;;;;;;;;;
2021/05/23 00:59:56;;;;;;;2.08;1.35;;;10.8;99.9;;;;;;;;;
2021/05/23 01:00:02;;;;;;;2.08;1.35;;;10.8;99.9;;;;;;;;;
2021/05/23 01:00:06;;;;;;;2.08;1.35;;;10.8;99.9;;;;;;;;;
2021/05/23 01:00:16;;;;;;;2.08;1.35;;;10.8;99.9;;;;;;;;;
2021/05/23 01:00:27;;;;;;;2.08;1.35;;;10.8;99.9;;;;;;;;;
2021/05/23 01:00:44;;;;;;;4.32;1.5;;;10.7;99.9;;;;;;;;;
2021/05/23 01:00:52;;;;;;;4.32;1.5;;;10.7;99.9;;;;;;;;;
2021/05/23 01:01:02;;;;;;;4.32;1.5;;;10.7;99.9;;;;;;;;;
2021/05/23 01:01:08;;;;;;;4.32;1.5;;;10.7;99.9;;;;;;;;;
2021/05/23 01:01:13;;;;;;;4.32;1.5;;;10.7;99.9;;;;;;;;;
2021/05/23 01:01:29;;;;;;;2.33;1.5;;;10.7;99.9;;;;;;;;;
2021/05/23 01:01:38;;;;;;;2.33;1.5;;;10.7;99.9;;;;;;;;;
2021/05/23 01:01:54;;;;;;;2.33;1.5;;;10.7;99.9;;;;;;;;;
2021/05/23 01:02:02;;;;;;;2.33;1.5;;;10.7;99.9;;;;;;;;;
2021/05/23 01:02:10;;;;;;;2.33;1.5;;;10.7;99.9;;;;;;;;;
2021/05/23 01:02:14;;;;;;;2.33;1.5;;;10.7;99.9;;;;;;;;;
2021/05/23 01:03:02;;;;;;;1.67;1.58;;;10.7;99.9;;;;;;;;;
2021/05/23 01:03:21;;;;;;;1.67;1.58;;;10.7;99.9;;;;;;;;;
2021/05/23 01:03:21;;;;;;;1.67;1.58;;;10.7;99.9;;;;;;;;;
2021/05/23 01:03:26;;;;;;;1.67;1.58;;;10.7;99.9;;;;;;;;;
2021/05/23 01:04:01;;;;;;;1.2;1.1;;;10.6;99.9;;;;;;;;;
2021/05/23 01:04:02;;;;;;;1.2;1.1;;;10.6;99.9;;;;;;;;;
2021/05/23 01:04:02;;;;;;;1.2;1.1;;;10.6;99.9;;;;;;;;;
2021/05/23 01:04:02;;;;;;;1.2;1.1;;;10.6;99.9;;;;;;;;;
2021/05/23 01:04:02;;;;;;;1.2;1.1;;;10.6;99.9;;;;;;;;;
2021/05/23 01:04:48;;;;;;;3.97;1.67;;;10.6;99.9;;;;;;;;;
2021/05/23 01:05:02;;;;;;;3.97;1.67;;;10.6;99.9;;;;;;;;;
2021/05/23 01:05:13;;;;;;;3.97;1.67;;;10.6;99.9;;;;;;;;;
2021/05/23 01:05:13;;;;;;;3.97;1.67;;;10.6;99.9;;;;;;;;;
2021/05/23 01:05:54;;;;;;;2.75;1.48;;;10.6;99.9;;;;;;;;;
2021/05/23 01:05:54;;;;;;;2.75;1.48;;;10.6;99.9;;;;;;;;;
2021/05/23 01:06:04;;;;;;;2.75;1.48;;;10.6;99.9;;;;;;;;;
2021/05/23 01:06:05;;;;;;;2.75;1.48;;;10.6;99.9;;;;;;;;;
2021/05/23 01:06:05;;;;;;;2.75;1.48;;;10.6;99.9;;;;;;;;;
2021/05/23 01:06:15;;;;;;;2.75;1.48;;;10.6;99.9;;;;;;;;;
2021/05/23 01:06:15;;;;;;;2.75;1.48;;;10.6;99.9;;;;;;;;;
2021/05/23 01:06:15;;;;;;;2.75;1.48;;;10.6;99.9;;;;;;;;;
2021/05/23 01:06:15;;;;;;;2.75;1.48;;;10.6;99.9;;;;;;;;;
2021/05/23 01:06:20;;;;;;;2.75;1.48;;;10.6;99.9;;;;;;;;;
2021/05/23 01:07:01;;;;;;;1.88;1.5;;;10.6;99.9;;;;;;;;;
2021/05/23 01:07:01;;;;;;;1.88;1.5;;;10.6;99.9;;;;;;;;;
2021/05/23 01:07:16;;;;;;;1.88;1.5;;;10.6;99.9;;;;;;;;;
2021/05/23 01:07:27;;;;;;;1.88;1.5;;;10.6;99.9;;;;;;;;;
2021/05/23 01:08:02;;;;;;;3.58;1.83;;;10.6;99.9;;;;;;;;;
2021/05/23 01:08:07;;;;;;;3.58;1.83;;;10.6;99.9;;;;;;;;;
2021/05/23 01:08:07;;;;;;;3.58;1.83;;;10.6;99.9;;;;;;;;;
2021/05/23 01:08:18;;;;;;;3.58;1.83;;;10.6;99.9;;;;;;;;;
2021/05/23 01:08:18;;;;;;;3.58;1.83;;;10.6;99.9;;;;;;;;;
2021/05/23 01:08:28;;;;;;;3.58;1.83;;;10.6;99.9;;;;;;;;;
2021/05/23 01:08:28;;;;;;;3.58;1.83;;;10.6;99.9;;;;;;;;;
2021/05/23 01:08:28;;;;;;;3.58;1.83;;;10.6;99.9;;;;;;;;;
2021/05/23 01:08:33;;;;;;;1.63;1.42;;;10.6;99.9;;;;;;;;;
2021/05/23 01:09:01;;;;;;;1.63;1.42;;;10.6;99.9;;;;;;;;;
2021/05/23 01:09:17;;;;;;;1.63;1.42;;;10.6;99.9;;;;;;;;;
2021/05/23 01:09:19;;;;;;;1.63;1.42;;;10.6;99.9;;;;;;;;;
2021/05/23 01:09:29;;;;;;;1.63;1.42;;;10.6;99.9;;;;;;;;;
2021/05/23 01:09:40;;;;;;;2.45;1.75;;;10.7;99.9;;;;;;;;;
2021/05/23 01:10:02;;;;;;;2.45;1.75;;;10.7;99.9;;;;;;;;;
2021/05/23 01:10:15;;;;;;;2.45;1.75;;;10.7;99.9;;;;;;;;;
2021/05/23 01:10:21;;;;;;;2.45;1.75;;;10.7;99.9;;;;;;;;;
2021/05/23 01:10:21;;;;;;;2.45;1.75;;;10.7;99.9;;;;;;;;;
2021/05/23 01:10:31;;;;;;;2.95;1.35;;;10.7;99.9;;;;;;;;;
2021/05/23 01:10:31;;;;;;;2.95;1.35;;;10.7;99.9;;;;;;;;;
2021/05/23 01:10:41;;;;;;;2.95;1.35;;;10.7;99.9;;;;;;;;;
2021/05/23 01:10:41;;;;;;;2.95;1.35;;;10.7;99.9;;;;;;;;;
2021/05/23 01:10:46;;;;;;;2.95;1.35;;;10.7;99.9;;;;;;;;;
2021/05/23 01:11:02;;;;;;;2.95;1.35;;;10.7;99.9;;;;;;;;;
2021/05/23 01:11:12;;;;;;;2.95;1.35;;;10.7;99.9;;;;;;;;;
2021/05/23 01:11:27;;;;;;;2.95;1.35;;;10.7;99.9;;;;;;;;;
2021/05/23 01:11:32;;;;;;;4.4;1.83;;;10.7;99.9;;;;;;;;;
2021/05/23 01:11:42;;;;;;;4.4;1.83;;;10.7;99.9;;;;;;;;;
2021/05/23 01:11:53;;;;;;;4.4;1.83;;;10.7;99.9;;;;;;;;;
2021/05/23 01:12:02;;;;;;;4.4;1.83;;;10.7;99.9;;;;;;;;;
2021/05/23 01:12:18;;;;;;;4.4;1.83;;;10.7;99.9;;;;;;;;;
2021/05/23 01:12:29;;;;;;;4.4;1.83;;;10.7;99.9;;;;;;;;;
2021/05/23 01:12:34;;;;;;;4.85;1.88;;;10.7;99.9;;;;;;;;;
2021/05/23 01:12:44;;;;;;;4.85;1.88;;;10.7;99.9;;;;;;;;;
2021/05/23 01:12:44;;;;;;;4.85;1.88;;;10.7;99.9;;;;;;;;;
2021/05/23 01:13:02;;;;;;;4.85;1.88;;;10.7;99.9;;;;;;;;;
2021/05/23 01:13:04;;;;;;;4.85;1.88;;;10.7;99.9;;;;;;;;;
2021/05/23 01:13:15;;;;;;;4.85;1.88;;;10.7;99.9;;;;;;;;;
2021/05/23 01:14:02;;;;;;;3.47;2.1;;;10.7;99.9;;;;;;;;;
2021/05/23 01:14:52;;;;;;;1.5;1.4;;;10.7;99.9;;;;;;;;;
2021/05/23 01:14:57;;;;;;;1.5;1.4;;;10.7;99.9;;;;;;;;;
2021/05/23 01:15:02;;;;;;;1.5;1.4;;;10.7;99.9;;;;;;;;;
2021/05/23 01:15:02;;;;;;;1.5;1.4;;;10.7;99.9;;;;;;;;;
2021/05/23 01:15:02;;;;;;;1.5;1.4;;;10.7;99.9;;;;;;;;;
2021/05/23 01:15:02;;;;;;;1.5;1.4;;;10.7;99.9;;;;;;;;;
2021/05/23 01:15:38;;;;;;;3.97;1.52;;;10.7;99.9;;;;;;;;;
2021/05/23 01:15:38;;;;;;;3.97;1.52;;;10.7;99.9;;;;;;;;;
2021/05/23 01:15:43;;;;;;;3.97;1.52;;;10.7;99.9;;;;;;;;;
2021/05/23 01:15:43;;;;;;;3.97;1.52;;;10.7;99.9;;;;;;;;;
2021/05/23 01:16:02;;;;;;;3.97;1.52;;;10.7;99.9;;;;;;;;;
2021/05/23 01:16:04;;;;;;;3.97;1.52;;;10.7;99.9;;;;;;;;;
2021/05/23 01:16:24;;;;;;;3.97;1.52;;;10.7;99.9;;;;;;;;;
2021/05/23 01:16:34;;;;;;;2.75;1.85;;;10.7;99.9;;;;;;;;;
2021/05/23 01:16:55;;;;;;;2.75;1.85;;;10.7;99.9;;;;;;;;;
2021/05/23 01:17:02;;;;;;;2.75;1.85;;;10.7;99.9;;;;;;;;;
2021/05/23 01:17:10;;;;;;;2.75;1.85;;;10.7;99.9;;;;;;;;;